createdAt,value
2022-08-30T00:00:05.744Z,27.16
2022-08-30T00:02:37.111Z,27.16
2022-08-30T00:05:07.369Z,27.15
2022-08-30T00:07:38.092Z,27.12
2022-08-30T00:10:10.076Z,27.10
2022-08-30T00:12:39.041Z,27.09
2022-08-30T00:15:09.392Z,27.08
2022-08-30T00:17:43.711Z,27.07
2022-08-30T00:20:18.072Z,27.06
2022-08-30T00:22:47.960Z,27.05
2022-08-30T00:25:17.675Z,27.03
2022-08-30T00:27:46.818Z,27.04
2022-08-30T00:30:17.251Z,27.01
2022-08-30T00:32:47.569Z,26.99
2022-08-30T00:35:20.541Z,26.95
2022-08-30T00:37:50.847Z,26.93
2022-08-30T00:40:24.834Z,26.94
2022-08-30T00:42:59.569Z,26.93
2022-08-30T00:45:35.624Z,26.93
2022-08-30T00:48:06.978Z,26.92
2022-08-30T00:50:40.910Z,26.92
2022-08-30T00:53:16.364Z,26.92
2022-08-30T00:55:45.859Z,26.91
2022-08-30T00:58:21.379Z,26.91
2022-08-30T01:00:53.315Z,26.90
2022-08-30T01:03:23.919Z,26.91
2022-08-30T01:05:53.837Z,26.89
2022-08-30T01:08:23.283Z,26.88
2022-08-30T01:10:54.473Z,26.87
2022-08-30T01:13:26.645Z,26.85
2022-08-30T01:15:56.793Z,26.84
2022-08-30T01:18:27.646Z,26.84
2022-08-30T01:21:03.821Z,26.83
2022-08-30T01:23:36.699Z,26.79
2022-08-30T01:26:07.965Z,26.80
2022-08-30T01:28:37.816Z,26.79
2022-08-30T01:31:07.273Z,26.78
2022-08-30T01:33:38.632Z,26.78
2022-08-30T01:36:12.497Z,26.78
2022-08-30T01:38:49.192Z,26.77
2022-08-30T01:41:23.089Z,26.76
2022-08-30T01:43:55.481Z,26.77
2022-08-30T01:46:29.017Z,26.76
2022-08-30T01:48:59.770Z,26.75
2022-08-30T01:51:30.028Z,26.74
2022-08-30T01:54:00.332Z,26.73
2022-08-30T01:56:30.979Z,26.73
2022-08-30T01:59:02.957Z,26.72
2022-08-30T02:01:35.838Z,26.72
2022-08-30T02:04:06.643Z,26.71
2022-08-30T02:06:35.846Z,26.71
2022-08-30T02:09:06.861Z,26.69
2022-08-30T02:11:35.680Z,26.65
2022-08-30T02:14:04.875Z,26.63
2022-08-30T02:16:33.993Z,26.62
2022-08-30T02:19:02.820Z,26.60
2022-08-30T02:21:31.837Z,26.58
2022-08-30T02:24:00.541Z,26.56
2022-08-30T02:26:30.701Z,26.54
2022-08-30T02:29:00.133Z,26.52
2022-08-30T02:31:28.950Z,26.50
2022-08-30T02:33:58.776Z,26.51
2022-08-30T02:36:27.758Z,26.49
2022-08-30T02:38:56.634Z,26.50
2022-08-30T02:41:25.523Z,26.49
2022-08-30T02:43:58.462Z,26.48
2022-08-30T02:46:27.265Z,26.47
2022-08-30T02:49:12.997Z,26.47
2022-08-30T02:51:51.317Z,26.45
2022-08-30T02:54:20.811Z,26.44
2022-08-30T02:56:51.091Z,26.42
2022-08-30T02:59:21.061Z,26.40
2022-08-30T03:04:19.131Z,26.37
2022-08-30T03:06:56.133Z,26.35
2022-08-30T03:09:24.737Z,26.33
2022-08-30T03:11:53.405Z,26.33
2022-08-30T03:14:24.163Z,26.33
2022-08-30T03:16:53.193Z,26.33
2022-08-30T03:19:22.663Z,26.34
2022-08-30T03:21:51.507Z,26.33
2022-08-30T03:24:20.310Z,26.31
2022-08-30T03:26:49.134Z,26.31
2022-08-30T03:29:18.023Z,26.28
2022-08-30T03:31:53.656Z,26.28
2022-08-30T03:34:24.136Z,26.27
2022-08-30T03:36:55.095Z,26.27
2022-08-30T03:39:25.963Z,26.22
2022-08-30T03:41:55.372Z,26.21
2022-08-30T03:44:24.535Z,26.20
2022-08-30T03:46:54.769Z,26.20
2022-08-30T03:49:24.475Z,26.19
2022-08-30T03:51:53.343Z,26.18
2022-08-30T03:54:24.232Z,26.17
2022-08-30T03:56:53.605Z,26.16
2022-08-30T03:59:22.266Z,26.15
2022-08-30T04:01:51.565Z,26.12
2022-08-30T04:04:21.868Z,26.12
2022-08-30T04:06:50.965Z,26.07
2022-08-30T04:09:20.397Z,26.04
2022-08-30T04:11:49.214Z,26.00
2022-08-30T04:14:18.093Z,25.99
2022-08-30T04:16:47.064Z,25.95
2022-08-30T04:19:15.920Z,25.95
2022-08-30T04:21:46.064Z,25.93
2022-08-30T04:24:15.438Z,25.91
2022-08-30T04:26:44.731Z,25.87
2022-08-30T04:29:16.715Z,25.84
2022-08-30T04:31:45.665Z,25.82
2022-08-30T04:34:16.092Z,25.82
2022-08-30T04:36:48.139Z,25.80
2022-08-30T04:39:17.645Z,25.80
2022-08-30T04:41:46.576Z,25.75
2022-08-30T04:44:19.491Z,25.72
2022-08-30T04:46:49.024Z,25.71
2022-08-30T04:49:17.725Z,25.70
2022-08-30T04:51:50.195Z,25.70
2022-08-30T04:54:20.837Z,25.70
2022-08-30T04:56:56.214Z,25.68
2022-08-30T04:59:27.646Z,25.68
2022-08-30T05:01:59.262Z,25.69
2022-08-30T05:04:28.783Z,25.69
2022-08-30T05:07:00.574Z,25.69
2022-08-30T05:09:30.347Z,25.68
2022-08-30T05:11:59.558Z,25.68
2022-08-30T05:14:29.255Z,25.66
2022-08-30T05:16:59.700Z,25.67
2022-08-30T05:19:28.812Z,25.65
2022-08-30T05:21:59.523Z,25.66
2022-08-30T05:24:29.098Z,25.62
2022-08-30T05:27:05.759Z,25.63
2022-08-30T05:29:36.347Z,25.61
2022-08-30T05:32:10.349Z,25.59
2022-08-30T05:34:40.306Z,25.59
2022-08-30T05:37:13.928Z,25.59
2022-08-30T05:39:51.525Z,25.59
2022-08-30T05:42:26.903Z,25.60
2022-08-30T05:45:01.594Z,25.59
2022-08-30T05:47:34.543Z,25.55
2022-08-30T05:50:07.286Z,25.56
2022-08-30T05:52:45.346Z,25.57
2022-08-30T05:55:16.626Z,25.54
2022-08-30T05:57:55.927Z,25.56
2022-08-30T06:00:30.586Z,25.56
2022-08-30T06:03:07.323Z,25.56
2022-08-30T06:05:39.483Z,25.58
2022-08-30T06:08:14.088Z,25.60
2022-08-30T06:10:46.036Z,25.58
2022-08-30T06:13:19.828Z,25.59
2022-08-30T06:15:56.875Z,25.59
2022-08-30T06:18:31.803Z,25.57
2022-08-30T09:54:37.040Z,26.86
2022-08-30T09:57:13.299Z,26.96
2022-08-30T09:59:54.316Z,27.08
2022-08-30T10:02:44.511Z,27.15
2022-08-30T10:05:25.246Z,27.23
2022-08-30T10:08:07.132Z,27.30
2022-08-30T10:10:50.940Z,27.35
2022-08-30T10:13:52.024Z,27.43
2022-08-30T10:16:37.127Z,27.54
2022-08-30T10:19:22.826Z,27.63
2022-08-30T10:21:59.879Z,27.68
2022-08-30T10:24:36.079Z,27.75
2022-08-30T10:27:12.789Z,27.78
2022-08-30T10:29:47.541Z,27.80
2022-08-30T10:32:25.851Z,27.83
2022-08-30T10:34:59.065Z,27.89
2022-08-30T10:37:31.384Z,27.95
2022-08-30T10:40:26.681Z,28.02
2022-08-30T10:43:03.080Z,28.11
2022-08-30T10:45:37.884Z,28.17
2022-08-30T10:48:15.508Z,28.20
2022-08-30T10:50:50.205Z,28.22
2022-08-30T10:53:24.751Z,28.24
2022-08-30T10:55:59.025Z,28.25
2022-08-30T10:58:31.407Z,28.27
2022-08-30T11:01:23.594Z,28.33
2022-08-30T11:04:32.992Z,28.38
2022-08-30T11:07:19.076Z,28.46
2022-08-30T11:10:27.967Z,28.52
2022-08-30T11:13:02.790Z,28.57
2022-08-30T11:15:38.832Z,28.60
2022-08-30T11:18:15.397Z,28.63
2022-08-30T11:20:49.354Z,28.66
2022-08-30T11:23:32.798Z,28.66
2022-08-30T11:26:06.154Z,28.71
2022-08-30T11:29:06.948Z,28.76
2022-08-30T11:31:42.636Z,28.83
2022-08-30T11:34:13.544Z,28.87
2022-08-30T11:37:09.839Z,28.94
2022-08-30T11:39:56.361Z,29.00
2022-08-30T11:45:52.460Z,29.10
2022-08-30T11:48:54.502Z,29.14
2022-08-30T11:52:26.514Z,29.16
2022-08-30T11:55:24.420Z,29.22
2022-08-30T11:58:02.226Z,29.29
2022-08-30T12:00:36.662Z,29.35
2022-08-30T12:03:08.034Z,29.42
2022-08-30T12:05:59.824Z,29.50
2022-08-30T12:09:02.320Z,29.56
2022-08-30T12:11:56.971Z,29.59
2022-08-30T12:14:49.044Z,29.62
2022-08-30T12:17:53.623Z,29.67
2022-08-30T12:20:28.842Z,29.70
2022-08-30T12:23:16.960Z,29.74
2022-08-30T12:25:46.693Z,29.77
2022-08-30T12:28:23.176Z,29.81
2022-08-30T12:30:52.559Z,29.85
2022-08-30T12:33:39.495Z,29.87
2022-08-30T12:36:32.047Z,29.92
2022-08-30T12:39:16.953Z,29.96
2022-08-30T12:41:46.822Z,30.01
2022-08-30T12:44:20.570Z,30.05
2022-08-30T12:46:58.861Z,30.08
2022-08-30T12:49:32.687Z,30.11
2022-08-30T12:52:18.547Z,30.14
2022-08-30T12:54:49.348Z,30.15
2022-08-30T12:57:39.190Z,30.14
2022-08-30T13:00:11.660Z,30.16
2022-08-30T13:02:48.194Z,30.17
2022-08-30T13:05:47.907Z,30.15
2022-08-30T13:08:22.945Z,30.17
2022-08-30T13:11:04.451Z,30.23
2022-08-30T13:13:45.697Z,30.26
2022-08-30T13:16:29.362Z,30.31
2022-08-30T13:19:29.310Z,30.32
2022-08-30T13:22:00.036Z,30.38
2022-08-30T13:24:29.284Z,30.42
2022-08-30T13:27:06.578Z,30.46
2022-08-30T13:29:35.280Z,30.46
2022-08-30T13:32:04.520Z,30.49
2022-08-30T13:34:35.466Z,30.51
2022-08-30T13:37:05.109Z,30.55
2022-08-30T13:40:04.019Z,30.56
2022-08-30T13:42:35.191Z,30.53
2022-08-30T13:45:40.866Z,30.58
2022-08-30T13:48:00.122Z,30.61
2022-08-30T13:50:31.874Z,30.67
2022-08-30T13:54:13.059Z,30.70
2022-08-30T13:57:54.842Z,30.75
2022-08-30T14:00:47.052Z,30.76
2022-08-30T14:03:17.084Z,30.79
2022-08-30T14:05:54.570Z,30.82
2022-08-30T14:08:48.787Z,30.81
2022-08-30T14:11:22.859Z,30.84
2022-08-30T14:16:49.374Z,30.84
2022-08-30T14:19:22.874Z,30.79
2022-08-30T14:21:52.240Z,30.77
2022-08-30T14:24:21.467Z,30.76
2022-08-30T14:26:53.939Z,30.75
2022-08-30T14:29:29.885Z,30.76
2022-08-30T14:32:00.573Z,30.78
2022-08-30T14:34:29.447Z,30.80
2022-08-30T14:36:58.264Z,30.80
2022-08-30T14:39:27.372Z,30.80
2022-08-30T14:41:57.085Z,30.80
2022-08-30T14:44:27.193Z,30.82
2022-08-30T14:46:56.550Z,30.81
2022-08-30T14:49:27.379Z,30.86
2022-08-30T14:51:56.931Z,30.88
2022-08-30T14:54:29.054Z,30.93
2022-08-30T14:56:58.703Z,30.94
2022-08-30T14:59:28.883Z,30.95
2022-08-30T15:01:57.829Z,30.98
2022-08-30T15:04:27.930Z,31.00
2022-08-30T15:06:56.529Z,31.00
2022-08-30T15:09:26.109Z,31.01
2022-08-30T15:11:58.835Z,30.99
2022-08-30T15:14:28.399Z,30.95
2022-08-30T15:16:58.322Z,30.94
2022-08-30T15:19:29.204Z,30.90
2022-08-30T15:22:02.402Z,30.88
2022-08-30T15:24:32.609Z,30.83
2022-08-30T15:27:02.152Z,30.82
2022-08-30T15:29:32.157Z,30.80
2022-08-30T15:32:02.390Z,30.76
2022-08-30T15:34:33.701Z,30.72
2022-08-30T15:37:02.907Z,30.68
2022-08-30T15:39:32.265Z,30.68
2022-08-30T15:42:01.790Z,30.68
2022-08-30T15:44:31.678Z,30.69
2022-08-30T15:47:00.618Z,30.68
2022-08-30T15:49:31.501Z,30.65
2022-08-30T15:52:04.131Z,30.63
2022-08-30T15:54:33.380Z,30.58
2022-08-30T15:57:02.684Z,30.54
2022-08-30T15:59:34.698Z,30.50
2022-08-30T16:02:03.349Z,30.47
2022-08-30T16:04:33.576Z,30.46
2022-08-30T16:07:02.624Z,30.44
2022-08-30T16:09:43.970Z,30.43
2022-08-30T16:12:21.188Z,30.42
2022-08-30T16:14:55.104Z,30.43
2022-08-30T16:17:26.991Z,30.42
2022-08-30T16:19:58.884Z,30.38
2022-08-30T16:22:37.487Z,30.36
2022-08-30T16:25:07.700Z,30.35
2022-08-30T16:27:55.882Z,30.29
2022-08-30T16:30:29.211Z,30.29
2022-08-30T16:33:00.971Z,30.28
2022-08-30T16:35:31.194Z,30.26
2022-08-30T16:38:00.179Z,30.25
2022-08-30T16:40:42.942Z,30.22
2022-08-30T16:43:24.275Z,30.20
2022-08-30T16:46:07.020Z,30.17
2022-08-30T16:48:35.930Z,30.13
2022-08-30T16:51:17.734Z,30.10
2022-08-30T16:54:03.680Z,30.09
2022-08-30T16:56:54.098Z,30.09
2022-08-30T16:59:29.243Z,30.10
2022-08-30T17:02:09.387Z,30.12
2022-08-30T17:04:56.569Z,30.12
2022-08-30T17:07:27.189Z,30.08
2022-08-30T17:10:26.361Z,30.05
2022-08-30T17:13:01.078Z,29.99
2022-08-30T17:15:36.496Z,29.98
2022-08-30T17:18:19.492Z,29.97
2022-08-30T17:20:52.532Z,29.96
2022-08-30T17:23:26.095Z,29.96
2022-08-30T17:26:07.946Z,29.93
2022-08-30T17:28:51.075Z,29.90
2022-08-30T17:31:22.033Z,29.88
2022-08-30T17:33:51.758Z,29.87
2022-08-30T17:36:20.268Z,29.85
2022-08-30T17:38:50.829Z,29.84
2022-08-30T17:41:19.513Z,29.81
2022-08-30T17:43:49.223Z,29.81
2022-08-30T18:46:55.749Z,29.08
2022-08-30T18:49:26.025Z,29.12
2022-08-30T18:51:54.752Z,29.15
2022-08-30T18:54:23.962Z,29.16
2022-08-30T18:56:53.034Z,29.18
2022-08-30T18:59:23.710Z,29.21
2022-08-30T19:02:06.287Z,29.23
2022-08-30T19:04:36.066Z,29.25
2022-08-30T19:07:07.003Z,29.26
2022-08-30T19:09:36.520Z,29.25
2022-08-30T19:12:09.461Z,29.25
2022-08-30T19:14:40.507Z,29.25
2022-08-30T19:17:11.304Z,29.29
2022-08-30T19:19:48.100Z,29.28
2022-08-30T19:22:19.431Z,29.28
2022-08-30T19:24:49.628Z,29.28
2022-08-30T19:27:23.138Z,29.27
2022-08-30T19:30:09.443Z,29.24
2022-08-30T19:32:39.734Z,29.22
2022-08-30T19:35:10.919Z,29.22
2022-08-30T19:37:40.544Z,29.18
2022-08-30T19:40:15.067Z,29.18
2022-08-30T19:42:46.582Z,29.14
2022-08-30T19:45:18.566Z,29.12
2022-08-30T19:47:50.810Z,29.12
2022-08-30T19:50:20.787Z,29.09
2022-08-30T19:52:55.020Z,29.09
2022-08-30T19:55:28.758Z,29.12
2022-08-30T19:58:00.499Z,29.12
2022-08-30T20:00:31.182Z,29.12
2022-08-30T20:03:02.547Z,29.12
2022-08-30T20:05:32.623Z,29.12
2022-08-30T20:08:01.458Z,29.11
2022-08-30T20:10:30.477Z,29.07
2022-08-30T20:12:59.887Z,29.07
2022-08-30T20:15:29.201Z,29.04
2022-08-30T20:18:06.060Z,29.02
2022-08-30T20:23:35.443Z,29.00
2022-08-30T20:26:05.480Z,29.01
2022-08-30T20:28:34.287Z,29.00
2022-08-30T20:31:06.672Z,29.03
2022-08-30T20:33:38.185Z,29.03
2022-08-30T20:36:11.520Z,29.03
2022-08-30T20:38:40.958Z,29.00
2022-08-30T20:41:12.713Z,29.00
2022-08-30T20:43:42.194Z,29.00
2022-08-30T20:46:13.086Z,28.98
2022-08-30T20:48:43.390Z,28.98
2022-08-30T20:51:19.408Z,28.96
2022-08-30T20:53:48.576Z,28.97
2022-08-30T20:56:21.769Z,28.96
2022-08-30T20:58:51.279Z,28.94
2022-08-30T21:01:21.059Z,28.94
2022-08-30T21:03:51.221Z,28.93
2022-08-30T21:06:22.061Z,28.91
2022-08-30T21:08:51.203Z,28.89
2022-08-30T21:11:21.058Z,28.89
2022-08-30T21:13:49.890Z,28.88
2022-08-30T21:16:22.187Z,28.88
2022-08-30T21:18:51.748Z,28.88
2022-08-30T21:21:26.596Z,28.87
2022-08-30T21:24:00.872Z,28.86
2022-08-30T21:26:31.474Z,28.84
2022-08-30T21:29:00.465Z,28.81
2022-08-30T21:31:30.302Z,28.81
2022-08-30T21:33:59.316Z,28.82
2022-08-30T21:36:47.023Z,28.81
2022-08-30T21:39:21.171Z,28.79
2022-08-30T21:41:53.020Z,28.77
2022-08-30T21:44:25.745Z,28.75
2022-08-30T21:46:56.227Z,28.74
2022-08-30T21:49:26.549Z,28.73
2022-08-30T21:51:57.670Z,28.72
2022-08-30T21:54:28.383Z,28.70
2022-08-30T21:57:05.000Z,28.67
2022-08-30T21:59:34.336Z,28.65
2022-08-30T22:08:17.730Z,28.58
2022-08-30T22:30:20.904Z,28.34
2022-08-30T22:32:49.982Z,28.34
2022-08-30T22:35:21.627Z,28.33
2022-08-30T22:37:52.946Z,28.31
2022-08-30T22:40:23.062Z,28.30
2022-08-30T22:42:54.170Z,28.29
2022-08-30T22:45:22.840Z,28.25
2022-08-30T22:47:51.490Z,28.20
2022-08-30T22:50:20.587Z,28.15
2022-08-30T22:52:50.021Z,28.11
2022-08-30T22:55:19.240Z,28.11
2022-08-30T22:57:48.105Z,28.09
2022-08-30T23:00:20.441Z,28.08
2022-08-30T23:02:53.318Z,28.05
2022-08-30T23:05:24.256Z,28.03
2022-08-30T23:07:53.154Z,28.00
2022-08-30T23:10:27.958Z,27.97
2022-08-30T23:12:56.971Z,27.95
2022-08-30T23:15:29.626Z,27.91
2022-08-30T23:17:59.328Z,27.88
2022-08-30T23:20:32.516Z,27.83
2022-08-30T23:23:01.300Z,27.81
2022-08-30T23:25:52.104Z,27.81
2022-08-30T23:28:40.590Z,27.80
2022-08-30T23:31:32.099Z,27.76
2022-08-30T23:34:18.965Z,27.71
2022-08-30T23:37:05.565Z,27.70
2022-08-30T23:39:51.707Z,27.68
2022-08-30T23:42:37.886Z,27.66
2022-08-30T23:45:25.491Z,27.64
2022-08-30T23:48:13.061Z,27.61
2022-08-30T23:50:59.121Z,27.60
2022-08-30T23:53:44.879Z,27.59
2022-08-30T23:56:31.270Z,27.60
2022-08-30T23:59:17.683Z,27.62
